sensor_id;sensor_type;location;lat;lon;timestamp;pressure;altitude;pressure_sealevel;temperature
11792;BMP180;5953;52.372;9.918;2022-12-07T00:01:25;100559.00;;;7.70
11792;BMP180;5953;52.372;9.918;2022-12-07T00:03:54;100542.00;;;7.70
11792;BMP180;5953;52.372;9.918;2022-12-07T00:06:23;100556.00;;;7.80
11792;BMP180;5953;52.372;9.918;2022-12-07T00:08:51;100572.00;;;7.80
11792;BMP180;5953;52.372;9.918;2022-12-07T00:11:21;100554.00;;;7.80
11792;BMP180;5953;52.372;9.918;2022-12-07T00:13:54;100533.00;;;7.90
11792;BMP180;5953;52.372;9.918;2022-12-07T00:16:25;100531.00;;;7.90
11792;BMP180;5953;52.372;9.918;2022-12-07T00:18:53;100544.00;;;8.00
11792;BMP180;5953;52.372;9.918;2022-12-07T00:21:22;100531.00;;;8.10
11792;BMP180;5953;52.372;9.918;2022-12-07T00:23:52;100539.00;;;8.10
11792;BMP180;5953;52.372;9.918;2022-12-07T00:26:22;100536.00;;;8.20
11792;BMP180;5953;52.372;9.918;2022-12-07T00:28:52;100542.00;;;8.20
11792;BMP180;5953;52.372;9.918;2022-12-07T00:31:23;100541.00;;;8.30
11792;BMP180;5953;52.372;9.918;2022-12-07T00:33:51;100540.00;;;8.40
11792;BMP180;5953;52.372;9.918;2022-12-07T00:36:21;100533.00;;;8.40
11792;BMP180;5953;52.372;9.918;2022-12-07T00:38:53;100527.00;;;8.40
11792;BMP180;5953;52.372;9.918;2022-12-07T00:41:22;100497.00;;;8.20
11792;BMP180;5953;52.372;9.918;2022-12-07T00:43:54;100498.00;;;8.40
11792;BMP180;5953;52.372;9.918;2022-12-07T00:46:24;100524.00;;;8.40
11792;BMP180;5953;52.372;9.918;2022-12-07T00:48:53;100494.00;;;8.30
11792;BMP180;5953;52.372;9.918;2022-12-07T00:51:22;100499.00;;;8.30
11792;BMP180;5953;52.372;9.918;2022-12-07T00:53:53;100524.00;;;8.30
11792;BMP180;5953;52.372;9.918;2022-12-07T00:56:22;100513.00;;;8.30
11792;BMP180;5953;52.372;9.918;2022-12-07T00:58:52;100509.00;;;8.40
11792;BMP180;5953;52.372;9.918;2022-12-07T01:01:20;100498.00;;;8.40
11792;BMP180;5953;52.372;9.918;2022-12-07T01:03:49;100498.00;;;8.30
11792;BMP180;5953;52.372;9.918;2022-12-07T01:06:19;100507.00;;;8.40
11792;BMP180;5953;52.372;9.918;2022-12-07T01:08:48;100504.00;;;8.30
11792;BMP180;5953;52.372;9.918;2022-12-07T01:11:20;100506.00;;;8.30
11792;BMP180;5953;52.372;9.918;2022-12-07T01:13:50;100502.00;;;8.30
11792;BMP180;5953;52.372;9.918;2022-12-07T01:16:19;100507.00;;;8.20
11792;BMP180;5953;52.372;9.918;2022-12-07T01:18:50;100494.00;;;8.20
11792;BMP180;5953;52.372;9.918;2022-12-07T01:21:20;100509.00;;;8.10
11792;BMP180;5953;52.372;9.918;2022-12-07T01:23:49;100515.00;;;8.30
11792;BMP180;5953;52.372;9.918;2022-12-07T01:26:20;100496.00;;;8.20
11792;BMP180;5953;52.372;9.918;2022-12-07T01:28:49;100506.00;;;8.30
11792;BMP180;5953;52.372;9.918;2022-12-07T01:31:19;100505.00;;;8.30
11792;BMP180;5953;52.372;9.918;2022-12-07T01:33:51;100476.00;;;8.40
11792;BMP180;5953;52.372;9.918;2022-12-07T01:36:21;100499.00;;;8.40
11792;BMP180;5953;52.372;9.918;2022-12-07T01:38:50;100481.00;;;8.50
11792;BMP180;5953;52.372;9.918;2022-12-07T01:41:24;100485.00;;;8.50
11792;BMP180;5953;52.372;9.918;2022-12-07T01:44:14;100489.00;;;8.50
11792;BMP180;5953;52.372;9.918;2022-12-07T01:46:43;100491.00;;;8.40
11792;BMP180;5953;52.372;9.918;2022-12-07T01:49:19;100490.00;;;8.40
11792;BMP180;5953;52.372;9.918;2022-12-07T01:51:49;100496.00;;;8.40
11792;BMP180;5953;52.372;9.918;2022-12-07T01:54:20;100456.00;;;8.40
11792;BMP180;5953;52.372;9.918;2022-12-07T01:56:54;100452.00;;;8.40
11792;BMP180;5953;52.372;9.918;2022-12-07T01:59:23;100472.00;;;8.40
11792;BMP180;5953;52.372;9.918;2022-12-07T02:01:52;100477.00;;;8.50
11792;BMP180;5953;52.372;9.918;2022-12-07T02:04:22;100468.00;;;8.60
11792;BMP180;5953;52.372;9.918;2022-12-07T02:06:51;100462.00;;;8.40
11792;BMP180;5953;52.372;9.918;2022-12-07T02:09:19;100454.00;;;8.60
11792;BMP180;5953;52.372;9.918;2022-12-07T02:11:47;100460.00;;;8.60
11792;BMP180;5953;52.372;9.918;2022-12-07T02:14:15;100464.00;;;8.70
11792;BMP180;5953;52.372;9.918;2022-12-07T02:16:50;100465.00;;;8.80
11792;BMP180;5953;52.372;9.918;2022-12-07T02:20:09;100464.00;;;8.80
11792;BMP180;5953;52.372;9.918;2022-12-07T02:22:55;100468.00;;;8.70
11792;BMP180;5953;52.372;9.918;2022-12-07T02:25:36;100446.00;;;8.60
11792;BMP180;5953;52.372;9.918;2022-12-07T02:28:17;100456.00;;;8.60
11792;BMP180;5953;52.372;9.918;2022-12-07T02:30:49;100449.00;;;8.50
11792;BMP180;5953;52.372;9.918;2022-12-07T02:33:21;100444.00;;;8.60
11792;BMP180;5953;52.372;9.918;2022-12-07T02:35:54;100456.00;;;8.50
11792;BMP180;5953;52.372;9.918;2022-12-07T02:38:28;100414.00;;;8.20
11792;BMP180;5953;52.372;9.918;2022-12-07T02:41:02;100423.00;;;8.40
11792;BMP180;5953;52.372;9.918;2022-12-07T02:43:35;100446.00;;;8.40
11792;BMP180;5953;52.372;9.918;2022-12-07T02:46:09;100417.00;;;8.50
11792;BMP180;5953;52.372;9.918;2022-12-07T02:48:39;100420.00;;;8.50
11792;BMP180;5953;52.372;9.918;2022-12-07T02:51:09;100443.00;;;8.50
11792;BMP180;5953;52.372;9.918;2022-12-07T02:53:39;100453.00;;;8.40
11792;BMP180;5953;52.372;9.918;2022-12-07T02:56:13;100450.00;;;8.40
11792;BMP180;5953;52.372;9.918;2022-12-07T02:58:54;100452.00;;;8.40
11792;BMP180;5953;52.372;9.918;2022-12-07T03:01:31;100430.00;;;8.40
11792;BMP180;5953;52.372;9.918;2022-12-07T03:04:07;100431.00;;;8.40
11792;BMP180;5953;52.372;9.918;2022-12-07T03:06:42;100444.00;;;8.30
11792;BMP180;5953;52.372;9.918;2022-12-07T03:09:15;100443.00;;;8.20
11792;BMP180;5953;52.372;9.918;2022-12-07T03:11:48;100438.00;;;8.20
11792;BMP180;5953;52.372;9.918;2022-12-07T03:14:22;100430.00;;;8.10
11792;BMP180;5953;52.372;9.918;2022-12-07T03:16:57;100450.00;;;8.20
11792;BMP180;5953;52.372;9.918;2022-12-07T03:19:26;100429.00;;;8.20
11792;BMP180;5953;52.372;9.918;2022-12-07T03:21:56;100425.00;;;8.20
11792;BMP180;5953;52.372;9.918;2022-12-07T03:24:30;100436.00;;;8.30
11792;BMP180;5953;52.372;9.918;2022-12-07T03:27:03;100443.00;;;8.40
11792;BMP180;5953;52.372;9.918;2022-12-07T03:29:34;100425.00;;;8.50
11792;BMP180;5953;52.372;9.918;2022-12-07T03:32:10;100414.00;;;8.50
11792;BMP180;5953;52.372;9.918;2022-12-07T03:34:44;100424.00;;;8.50
11792;BMP180;5953;52.372;9.918;2022-12-07T03:37:17;100416.00;;;8.50
11792;BMP180;5953;52.372;9.918;2022-12-07T03:39:52;100381.00;;;8.20
11792;BMP180;5953;52.372;9.918;2022-12-07T03:42:25;100427.00;;;8.50
11792;BMP180;5953;52.372;9.918;2022-12-07T03:44:53;100426.00;;;8.50
11792;BMP180;5953;52.372;9.918;2022-12-07T03:47:26;100427.00;;;8.50
11792;BMP180;5953;52.372;9.918;2022-12-07T03:49:59;100430.00;;;8.50
11792;BMP180;5953;52.372;9.918;2022-12-07T03:52:33;100422.00;;;8.40
11792;BMP180;5953;52.372;9.918;2022-12-07T03:55:08;100428.00;;;8.40
11792;BMP180;5953;52.372;9.918;2022-12-07T03:57:39;100404.00;;;8.50
11792;BMP180;5953;52.372;9.918;2022-12-07T04:00:11;100433.00;;;8.50
11792;BMP180;5953;52.372;9.918;2022-12-07T04:02:42;100436.00;;;8.50
11792;BMP180;5953;52.372;9.918;2022-12-07T04:05:10;100418.00;;;8.50
11792;BMP180;5953;52.372;9.918;2022-12-07T04:07:38;100420.00;;;8.50
11792;BMP180;5953;52.372;9.918;2022-12-07T04:10:07;100444.00;;;8.50
11792;BMP180;5953;52.372;9.918;2022-12-07T04:12:35;100435.00;;;8.40
11792;BMP180;5953;52.372;9.918;2022-12-07T04:15:03;100436.00;;;8.60
11792;BMP180;5953;52.372;9.918;2022-12-07T04:17:31;100444.00;;;8.40
11792;BMP180;5953;52.372;9.918;2022-12-07T04:20:01;100443.00;;;8.50
11792;BMP180;5953;52.372;9.918;2022-12-07T04:22:29;100434.00;;;8.50
11792;BMP180;5953;52.372;9.918;2022-12-07T04:24:57;100441.00;;;8.50
11792;BMP180;5953;52.372;9.918;2022-12-07T04:27:24;100427.00;;;8.40
11792;BMP180;5953;52.372;9.918;2022-12-07T04:29:52;100442.00;;;8.30
11792;BMP180;5953;52.372;9.918;2022-12-07T04:32:22;100430.00;;;8.30
11792;BMP180;5953;52.372;9.918;2022-12-07T04:34:50;100437.00;;;8.40
11792;BMP180;5953;52.372;9.918;2022-12-07T04:37:23;100448.00;;;8.20
11792;BMP180;5953;52.372;9.918;2022-12-07T04:39:52;100431.00;;;8.40
11792;BMP180;5953;52.372;9.918;2022-12-07T04:42:20;100436.00;;;8.30
11792;BMP180;5953;52.372;9.918;2022-12-07T04:44:48;100437.00;;;8.20
11792;BMP180;5953;52.372;9.918;2022-12-07T04:47:15;100421.00;;;8.10
11792;BMP180;5953;52.372;9.918;2022-12-07T04:49:43;100434.00;;;8.30
11792;BMP180;5953;52.372;9.918;2022-12-07T04:52:11;100433.00;;;8.30
11792;BMP180;5953;52.372;9.918;2022-12-07T04:54:40;100406.00;;;8.50
11792;BMP180;5953;52.372;9.918;2022-12-07T04:57:08;100424.00;;;8.50
11792;BMP180;5953;52.372;9.918;2022-12-07T04:59:36;100428.00;;;8.50
11792;BMP180;5953;52.372;9.918;2022-12-07T05:02:10;100421.00;;;8.40
11792;BMP180;5953;52.372;9.918;2022-12-07T05:04:38;100426.00;;;8.50
11792;BMP180;5953;52.372;9.918;2022-12-07T05:07:06;100421.00;;;8.70
11792;BMP180;5953;52.372;9.918;2022-12-07T05:09:34;100428.00;;;8.60
11792;BMP180;5953;52.372;9.918;2022-12-07T05:12:03;100444.00;;;8.60
11792;BMP180;5953;52.372;9.918;2022-12-07T05:14:31;100422.00;;;8.50
11792;BMP180;5953;52.372;9.918;2022-12-07T05:16:59;100435.00;;;8.40
11792;BMP180;5953;52.372;9.918;2022-12-07T05:19:27;100425.00;;;8.50
11792;BMP180;5953;52.372;9.918;2022-12-07T05:21:55;100427.00;;;8.60
11792;BMP180;5953;52.372;9.918;2022-12-07T05:24:23;100422.00;;;8.60
11792;BMP180;5953;52.372;9.918;2022-12-07T05:26:56;100432.00;;;8.60
11792;BMP180;5953;52.372;9.918;2022-12-07T05:29:26;100431.00;;;8.70
11792;BMP180;5953;52.372;9.918;2022-12-07T05:31:54;100441.00;;;8.40
11792;BMP180;5953;52.372;9.918;2022-12-07T05:34:22;100424.00;;;8.30
11792;BMP180;5953;52.372;9.918;2022-12-07T05:36:50;100431.00;;;8.50
11792;BMP180;5953;52.372;9.918;2022-12-07T05:39:18;100440.00;;;8.30
11792;BMP180;5953;52.372;9.918;2022-12-07T05:41:45;100411.00;;;8.40
11792;BMP180;5953;52.372;9.918;2022-12-07T05:44:32;100421.00;;;8.50
11792;BMP180;5953;52.372;9.918;2022-12-07T05:47:00;100388.00;;;8.40
11792;BMP180;5953;52.372;9.918;2022-12-07T05:49:28;100423.00;;;8.40
11792;BMP180;5953;52.372;9.918;2022-12-07T05:51:58;100393.00;;;8.40
11792;BMP180;5953;52.372;9.918;2022-12-07T05:54:26;100402.00;;;8.40
11792;BMP180;5953;52.372;9.918;2022-12-07T05:56:54;100407.00;;;8.30
11792;BMP180;5953;52.372;9.918;2022-12-07T05:59:22;100434.00;;;8.40
11792;BMP180;5953;52.372;9.918;2022-12-07T06:01:51;100407.00;;;8.40
11792;BMP180;5953;52.372;9.918;2022-12-07T06:04:20;100418.00;;;8.30
11792;BMP180;5953;52.372;9.918;2022-12-07T06:06:48;100420.00;;;8.30
11792;BMP180;5953;52.372;9.918;2022-12-07T06:09:17;100416.00;;;8.40
11792;BMP180;5953;52.372;9.918;2022-12-07T06:11:45;100430.00;;;8.30
11792;BMP180;5953;52.372;9.918;2022-12-07T06:14:31;100424.00;;;8.40
11792;BMP180;5953;52.372;9.918;2022-12-07T06:17:00;100392.00;;;8.30
11792;BMP180;5953;52.372;9.918;2022-12-07T06:19:28;100426.00;;;8.40
11792;BMP180;5953;52.372;9.918;2022-12-07T06:21:56;100411.00;;;8.20
11792;BMP180;5953;52.372;9.918;2022-12-07T06:24:24;100417.00;;;8.10
11792;BMP180;5953;52.372;9.918;2022-12-07T06:26:52;100424.00;;;8.30
11792;BMP180;5953;52.372;9.918;2022-12-07T06:29:20;100430.00;;;8.30
11792;BMP180;5953;52.372;9.918;2022-12-07T06:31:48;100415.00;;;8.30
11792;BMP180;5953;52.372;9.918;2022-12-07T06:34:19;100424.00;;;8.30
11792;BMP180;5953;52.372;9.918;2022-12-07T06:36:49;100421.00;;;8.20
11792;BMP180;5953;52.372;9.918;2022-12-07T06:39:21;100408.00;;;8.10
11792;BMP180;5953;52.372;9.918;2022-12-07T06:41:50;100421.00;;;8.30
11792;BMP180;5953;52.372;9.918;2022-12-07T06:44:19;100430.00;;;8.40
11792;BMP180;5953;52.372;9.918;2022-12-07T06:46:48;100419.00;;;8.40
11792;BMP180;5953;52.372;9.918;2022-12-07T06:49:18;100426.00;;;8.40
11792;BMP180;5953;52.372;9.918;2022-12-07T06:51:46;100421.00;;;8.30
11792;BMP180;5953;52.372;9.918;2022-12-07T06:54:14;100391.00;;;8.40
11792;BMP180;5953;52.372;9.918;2022-12-07T06:56:43;100379.00;;;8.30
11792;BMP180;5953;52.372;9.918;2022-12-07T06:59:10;100425.00;;;8.40
11792;BMP180;5953;52.372;9.918;2022-12-07T07:01:38;100419.00;;;8.20
11792;BMP180;5953;52.372;9.918;2022-12-07T07:04:06;100411.00;;;8.00
11792;BMP180;5953;52.372;9.918;2022-12-07T07:06:35;100399.00;;;8.20
11792;BMP180;5953;52.372;9.918;2022-12-07T07:09:03;100418.00;;;8.20
11792;BMP180;5953;52.372;9.918;2022-12-07T07:11:31;100433.00;;;8.20
11792;BMP180;5953;52.372;9.918;2022-12-07T07:13:59;100395.00;;;8.20
11792;BMP180;5953;52.372;9.918;2022-12-07T07:16:29;100432.00;;;8.30
11792;BMP180;5953;52.372;9.918;2022-12-07T07:18:57;100418.00;;;8.30
11792;BMP180;5953;52.372;9.918;2022-12-07T07:21:25;100436.00;;;8.20
11792;BMP180;5953;52.372;9.918;2022-12-07T07:23:55;100404.00;;;8.20
11792;BMP180;5953;52.372;9.918;2022-12-07T07:26:23;100400.00;;;8.20
11792;BMP180;5953;52.372;9.918;2022-12-07T07:28:54;100439.00;;;8.30
11792;BMP180;5953;52.372;9.918;2022-12-07T07:31:22;100449.00;;;8.20
11792;BMP180;5953;52.372;9.918;2022-12-07T07:33:50;100440.00;;;8.30
11792;BMP180;5953;52.372;9.918;2022-12-07T07:36:18;100449.00;;;8.30
11792;BMP180;5953;52.372;9.918;2022-12-07T07:38:46;100430.00;;;8.40
11792;BMP180;5953;52.372;9.918;2022-12-07T07:41:15;100460.00;;;8.30
11792;BMP180;5953;52.372;9.918;2022-12-07T07:43:43;100427.00;;;8.30
11792;BMP180;5953;52.372;9.918;2022-12-07T07:46:10;100412.00;;;8.00
11792;BMP180;5953;52.372;9.918;2022-12-07T07:48:38;100452.00;;;8.30
11792;BMP180;5953;52.372;9.918;2022-12-07T07:51:07;100459.00;;;7.90
11792;BMP180;5953;52.372;9.918;2022-12-07T07:53:35;100415.00;;;7.90
11792;BMP180;5953;52.372;9.918;2022-12-07T07:56:03;100454.00;;;8.00
11792;BMP180;5953;52.372;9.918;2022-12-07T07:58:33;100449.00;;;8.00
11792;BMP180;5953;52.372;9.918;2022-12-07T08:01:03;100419.00;;;8.00
11792;BMP180;5953;52.372;9.918;2022-12-07T08:03:32;100451.00;;;8.00
11792;BMP180;5953;52.372;9.918;2022-12-07T08:05:59;100456.00;;;7.90
11792;BMP180;5953;52.372;9.918;2022-12-07T08:08:29;100417.00;;;7.90
11792;BMP180;5953;52.372;9.918;2022-12-07T08:10:57;100463.00;;;8.10
11792;BMP180;5953;52.372;9.918;2022-12-07T08:13:27;100459.00;;;8.10
11792;BMP180;5953;52.372;9.918;2022-12-07T08:15:58;100463.00;;;8.20
11792;BMP180;5953;52.372;9.918;2022-12-07T08:18:30;100450.00;;;8.20
11792;BMP180;5953;52.372;9.918;2022-12-07T08:20:59;100463.00;;;8.00
11792;BMP180;5953;52.372;9.918;2022-12-07T08:23:27;100452.00;;;8.10
11792;BMP180;5953;52.372;9.918;2022-12-07T08:26:06;100463.00;;;8.20
11792;BMP180;5953;52.372;9.918;2022-12-07T08:28:34;100462.00;;;8.10
11792;BMP180;5953;52.372;9.918;2022-12-07T08:31:11;100416.00;;;8.10
11792;BMP180;5953;52.372;9.918;2022-12-07T08:33:45;100440.00;;;8.00
11792;BMP180;5953;52.372;9.918;2022-12-07T08:36:13;100462.00;;;8.20
11792;BMP180;5953;52.372;9.918;2022-12-07T08:38:42;100455.00;;;8.10
11792;BMP180;5953;52.372;9.918;2022-12-07T08:41:30;100440.00;;;8.20
11792;BMP180;5953;52.372;9.918;2022-12-07T08:43:57;100459.00;;;8.10
11792;BMP180;5953;52.372;9.918;2022-12-07T08:46:31;100461.00;;;8.00
11792;BMP180;5953;52.372;9.918;2022-12-07T08:49:04;100452.00;;;7.90
11792;BMP180;5953;52.372;9.918;2022-12-07T08:51:34;100435.00;;;8.10
11792;BMP180;5953;52.372;9.918;2022-12-07T08:54:12;100454.00;;;7.90
11792;BMP180;5953;52.372;9.918;2022-12-07T08:56:41;100475.00;;;8.20
11792;BMP180;5953;52.372;9.918;2022-12-07T08:59:10;100480.00;;;8.30
11792;BMP180;5953;52.372;9.918;2022-12-07T09:01:45;100425.00;;;8.40
11792;BMP180;5953;52.372;9.918;2022-12-07T09:04:21;100426.00;;;8.30
11792;BMP180;5953;52.372;9.918;2022-12-07T09:06:49;100436.00;;;8.30
11792;BMP180;5953;52.372;9.918;2022-12-07T09:09:17;100468.00;;;8.00
11792;BMP180;5953;52.372;9.918;2022-12-07T09:11:45;100471.00;;;8.20
11792;BMP180;5953;52.372;9.918;2022-12-07T09:14:13;100478.00;;;8.10
11792;BMP180;5953;52.372;9.918;2022-12-07T09:16:42;100458.00;;;8.10
11792;BMP180;5953;52.372;9.918;2022-12-07T09:19:11;100481.00;;;8.00
11792;BMP180;5953;52.372;9.918;2022-12-07T09:21:39;100442.00;;;8.10
11792;BMP180;5953;52.372;9.918;2022-12-07T09:24:07;100468.00;;;8.10
11792;BMP180;5953;52.372;9.918;2022-12-07T09:26:35;100480.00;;;8.10
11792;BMP180;5953;52.372;9.918;2022-12-07T09:29:06;100467.00;;;8.20
11792;BMP180;5953;52.372;9.918;2022-12-07T09:31:36;100464.00;;;8.30
11792;BMP180;5953;52.372;9.918;2022-12-07T09:34:04;100460.00;;;8.20
11792;BMP180;5953;52.372;9.918;2022-12-07T09:36:34;100458.00;;;8.10
11792;BMP180;5953;52.372;9.918;2022-12-07T09:39:02;100461.00;;;8.10
11792;BMP180;5953;52.372;9.918;2022-12-07T09:41:31;100461.00;;;8.20
11792;BMP180;5953;52.372;9.918;2022-12-07T09:44:03;100462.00;;;8.30
11792;BMP180;5953;52.372;9.918;2022-12-07T09:46:43;100439.00;;;8.10
11792;BMP180;5953;52.372;9.918;2022-12-07T09:49:13;100473.00;;;8.20
11792;BMP180;5953;52.372;9.918;2022-12-07T09:51:43;100475.00;;;8.40
11792;BMP180;5953;52.372;9.918;2022-12-07T09:54:13;100465.00;;;8.60
11792;BMP180;5953;52.372;9.918;2022-12-07T09:56:41;100469.00;;;8.60
11792;BMP180;5953;52.372;9.918;2022-12-07T09:59:13;100452.00;;;8.60
11792;BMP180;5953;52.372;9.918;2022-12-07T10:01:42;100422.00;;;8.60
11792;BMP180;5953;52.372;9.918;2022-12-07T10:04:17;100474.00;;;8.60
11792;BMP180;5953;52.372;9.918;2022-12-07T10:06:47;100461.00;;;8.50
11792;BMP180;5953;52.372;9.918;2022-12-07T10:09:19;100452.00;;;8.60
11792;BMP180;5953;52.372;9.918;2022-12-07T10:12:01;100459.00;;;8.30
11792;BMP180;5953;52.372;9.918;2022-12-07T10:14:32;100460.00;;;8.50
11792;BMP180;5953;52.372;9.918;2022-12-07T10:17:36;100416.00;;;8.60
11792;BMP180;5953;52.372;9.918;2022-12-07T10:20:14;100461.00;;;8.80
11792;BMP180;5953;52.372;9.918;2022-12-07T10:23:05;100449.00;;;8.80
11792;BMP180;5953;52.372;9.918;2022-12-07T10:25:34;100460.00;;;8.90
11792;BMP180;5953;52.372;9.918;2022-12-07T10:28:12;100449.00;;;8.60
11792;BMP180;5953;52.372;9.918;2022-12-07T10:30:53;100441.00;;;8.80
11792;BMP180;5953;52.372;9.918;2022-12-07T10:33:32;100455.00;;;8.80
11792;BMP180;5953;52.372;9.918;2022-12-07T10:36:09;100394.00;;;9.00
11792;BMP180;5953;52.372;9.918;2022-12-07T10:38:47;100459.00;;;8.90
11792;BMP180;5953;52.372;9.918;2022-12-07T10:41:21;100393.00;;;8.80
11792;BMP180;5953;52.372;9.918;2022-12-07T10:43:52;100435.00;;;8.70
11792;BMP180;5953;52.372;9.918;2022-12-07T10:46:48;100457.00;;;8.70
11792;BMP180;5953;52.372;9.918;2022-12-07T10:49:48;100445.00;;;8.70
11792;BMP180;5953;52.372;9.918;2022-12-07T10:52:37;100440.00;;;8.50
11792;BMP180;5953;52.372;9.918;2022-12-07T10:55:18;100437.00;;;8.70
11792;BMP180;5953;52.372;9.918;2022-12-07T10:58:00;100450.00;;;8.40
11792;BMP180;5953;52.372;9.918;2022-12-07T11:00:35;100446.00;;;8.20
11792;BMP180;5953;52.372;9.918;2022-12-07T11:03:18;100384.00;;;8.50
11792;BMP180;5953;52.372;9.918;2022-12-07T11:05:54;100405.00;;;8.70
11792;BMP180;5953;52.372;9.918;2022-12-07T11:08:43;100433.00;;;8.70
11792;BMP180;5953;52.372;9.918;2022-12-07T11:11:16;100379.00;;;8.70
11792;BMP180;5953;52.372;9.918;2022-12-07T11:13:58;100391.00;;;8.70
11792;BMP180;5953;52.372;9.918;2022-12-07T11:16:43;100420.00;;;8.70
11792;BMP180;5953;52.372;9.918;2022-12-07T11:19:32;100426.00;;;8.80
11792;BMP180;5953;52.372;9.918;2022-12-07T11:22:08;100435.00;;;8.80
11792;BMP180;5953;52.372;9.918;2022-12-07T11:24:43;100401.00;;;8.80
11792;BMP180;5953;52.372;9.918;2022-12-07T11:27:24;100358.00;;;8.90
11792;BMP180;5953;52.372;9.918;2022-12-07T11:30:12;100371.00;;;8.80
11792;BMP180;5953;52.372;9.918;2022-12-07T11:32:49;100414.00;;;8.60
11792;BMP180;5953;52.372;9.918;2022-12-07T11:35:30;100355.00;;;8.50
11792;BMP180;5953;52.372;9.918;2022-12-07T11:38:15;100355.00;;;8.50
11792;BMP180;5953;52.372;9.918;2022-12-07T11:41:08;100427.00;;;8.40
11792;BMP180;5953;52.372;9.918;2022-12-07T11:43:54;100382.00;;;8.40
11792;BMP180;5953;52.372;9.918;2022-12-07T11:46:43;100349.00;;;8.60
11792;BMP180;5953;52.372;9.918;2022-12-07T11:49:21;100430.00;;;8.40
11792;BMP180;5953;52.372;9.918;2022-12-07T11:51:53;100395.00;;;8.50
11792;BMP180;5953;52.372;9.918;2022-12-07T11:54:25;100404.00;;;8.30
11792;BMP180;5953;52.372;9.918;2022-12-07T11:57:09;100408.00;;;8.40
11792;BMP180;5953;52.372;9.918;2022-12-07T11:59:59;100421.00;;;8.30
11792;BMP180;5953;52.372;9.918;2022-12-07T12:02:43;100391.00;;;8.40
11792;BMP180;5953;52.372;9.918;2022-12-07T12:05:17;100397.00;;;8.40
11792;BMP180;5953;52.372;9.918;2022-12-07T12:08:00;100359.00;;;8.60
11792;BMP180;5953;52.372;9.918;2022-12-07T12:11:12;100389.00;;;8.70
11792;BMP180;5953;52.372;9.918;2022-12-07T12:14:05;100386.00;;;8.90
11792;BMP180;5953;52.372;9.918;2022-12-07T12:17:41;100368.00;;;8.90
11792;BMP180;5953;52.372;9.918;2022-12-07T12:20:20;100351.00;;;9.10
11792;BMP180;5953;52.372;9.918;2022-12-07T12:23:01;100343.00;;;9.10
11792;BMP180;5953;52.372;9.918;2022-12-07T12:25:39;100341.00;;;9.30
11792;BMP180;5953;52.372;9.918;2022-12-07T12:28:26;100352.00;;;9.40
11792;BMP180;5953;52.372;9.918;2022-12-07T12:31:07;100379.00;;;9.40
11792;BMP180;5953;52.372;9.918;2022-12-07T12:33:43;100386.00;;;9.20
11792;BMP180;5953;52.372;9.918;2022-12-07T12:36:28;100376.00;;;9.10
11792;BMP180;5953;52.372;9.918;2022-12-07T12:39:12;100372.00;;;9.10
11792;BMP180;5953;52.372;9.918;2022-12-07T12:41:56;100368.00;;;9.00
11792;BMP180;5953;52.372;9.918;2022-12-07T12:45:04;100362.00;;;9.00
11792;BMP180;5953;52.372;9.918;2022-12-07T12:48:07;100362.00;;;9.00
11792;BMP180;5953;52.372;9.918;2022-12-07T12:54:05;100346.00;;;9.10
11792;BMP180;5953;52.372;9.918;2022-12-07T12:56:48;100361.00;;;9.00
11792;BMP180;5953;52.372;9.918;2022-12-07T12:59:29;100331.00;;;9.10
11792;BMP180;5953;52.372;9.918;2022-12-07T13:02:20;100334.00;;;8.90
11792;BMP180;5953;52.372;9.918;2022-12-07T13:05:28;100354.00;;;9.00
11792;BMP180;5953;52.372;9.918;2022-12-07T13:08:16;100317.00;;;9.10
11792;BMP180;5953;52.372;9.918;2022-12-07T13:11:31;100352.00;;;8.90
11792;BMP180;5953;52.372;9.918;2022-12-07T13:20:53;100338.00;;;9.00
11792;BMP180;5953;52.372;9.918;2022-12-07T13:23:51;100348.00;;;9.10
11792;BMP180;5953;52.372;9.918;2022-12-07T13:26:44;100318.00;;;9.10
11792;BMP180;5953;52.372;9.918;2022-12-07T13:29:13;100358.00;;;8.90
11792;BMP180;5953;52.372;9.918;2022-12-07T13:31:59;100359.00;;;8.80
11792;BMP180;5953;52.372;9.918;2022-12-07T13:34:33;100279.00;;;8.90
11792;BMP180;5953;52.372;9.918;2022-12-07T13:37:18;100340.00;;;8.90
11792;BMP180;5953;52.372;9.918;2022-12-07T13:40:20;100307.00;;;8.90
11792;BMP180;5953;52.372;9.918;2022-12-07T13:43:05;100281.00;;;9.00
11792;BMP180;5953;52.372;9.918;2022-12-07T13:45:56;100304.00;;;9.00
11792;BMP180;5953;52.372;9.918;2022-12-07T13:53:19;100333.00;;;9.00
11792;BMP180;5953;52.372;9.918;2022-12-07T13:55:47;100342.00;;;9.10
11792;BMP180;5953;52.372;9.918;2022-12-07T13:58:36;100292.00;;;9.00
11792;BMP180;5953;52.372;9.918;2022-12-07T14:01:05;100319.00;;;8.90
11792;BMP180;5953;52.372;9.918;2022-12-07T14:11:56;100318.00;;;8.70
11792;BMP180;5953;52.372;9.918;2022-12-07T14:14:58;100326.00;;;8.60
11792;BMP180;5953;52.372;9.918;2022-12-07T14:17:50;100314.00;;;8.70
11792;BMP180;5953;52.372;9.918;2022-12-07T14:24:16;100324.00;;;8.70
11792;BMP180;5953;52.372;9.918;2022-12-07T14:27:02;100309.00;;;8.80
11792;BMP180;5953;52.372;9.918;2022-12-07T14:29:47;100284.00;;;8.80
11792;BMP180;5953;52.372;9.918;2022-12-07T14:32:21;100300.00;;;8.70
11792;BMP180;5953;52.372;9.918;2022-12-07T14:35:02;100321.00;;;8.80
11792;BMP180;5953;52.372;9.918;2022-12-07T14:37:30;100322.00;;;8.70
11792;BMP180;5953;52.372;9.918;2022-12-07T14:39:58;100323.00;;;8.60
11792;BMP180;5953;52.372;9.918;2022-12-07T14:42:28;100271.00;;;8.50
11792;BMP180;5953;52.372;9.918;2022-12-07T14:44:58;100319.00;;;8.50
11792;BMP180;5953;52.372;9.918;2022-12-07T14:47:27;100307.00;;;8.70
11792;BMP180;5953;52.372;9.918;2022-12-07T14:50:24;100283.00;;;8.70
11792;BMP180;5953;52.372;9.918;2022-12-07T14:52:56;100298.00;;;8.40
11792;BMP180;5953;52.372;9.918;2022-12-07T14:55:44;100321.00;;;8.50
11792;BMP180;5953;52.372;9.918;2022-12-07T14:58:13;100305.00;;;8.60
11792;BMP180;5953;52.372;9.918;2022-12-07T15:00:43;100289.00;;;8.50
11792;BMP180;5953;52.372;9.918;2022-12-07T15:03:11;100316.00;;;8.50
11792;BMP180;5953;52.372;9.918;2022-12-07T15:05:40;100323.00;;;8.50
11792;BMP180;5953;52.372;9.918;2022-12-07T15:08:08;100291.00;;;8.40
11792;BMP180;5953;52.372;9.918;2022-12-07T15:10:37;100298.00;;;8.30
11792;BMP180;5953;52.372;9.918;2022-12-07T15:13:05;100295.00;;;8.50
11792;BMP180;5953;52.372;9.918;2022-12-07T15:15:54;100334.00;;;8.50
11792;BMP180;5953;52.372;9.918;2022-12-07T15:18:35;100331.00;;;8.60
11792;BMP180;5953;52.372;9.918;2022-12-07T15:21:04;100318.00;;;8.60
11792;BMP180;5953;52.372;9.918;2022-12-07T15:23:32;100339.00;;;8.60
11792;BMP180;5953;52.372;9.918;2022-12-07T15:25:59;100324.00;;;8.60
11792;BMP180;5953;52.372;9.918;2022-12-07T15:28:27;100318.00;;;8.60